createdAt,value
2016-09-12T03:01:13.334Z,0
2016-09-12T03:01:39.048Z,0
2016-09-12T03:02:04.641Z,0
2016-09-12T03:02:30.207Z,0
2016-09-12T03:02:55.776Z,0
2016-09-12T03:03:21.336Z,0
2016-09-12T03:03:46.870Z,0
2016-09-12T03:04:12.467Z,0
2016-09-12T03:04:38.018Z,0
2016-09-12T03:05:03.600Z,0
2016-09-12T03:05:29.194Z,0
2016-09-12T03:05:54.747Z,0
2016-09-12T03:06:20.306Z,0
2016-09-12T03:06:45.908Z,0
2016-09-12T03:07:11.515Z,0
2016-09-12T03:07:37.314Z,0
2016-09-12T03:08:02.901Z,0
2016-09-12T03:08:28.482Z,0
2016-09-12T03:08:54.060Z,0
2016-09-12T03:09:19.616Z,0
2016-09-12T03:09:45.216Z,0
2016-09-12T03:10:10.838Z,0
2016-09-12T03:10:36.405Z,0
2016-09-12T03:11:02.064Z,0
2016-09-12T03:11:27.660Z,0
2016-09-12T03:11:53.212Z,0
2016-09-12T03:12:18.802Z,0
2016-09-12T03:12:44.351Z,0
2016-09-12T03:13:09.956Z,0
2016-09-12T03:13:35.510Z,0
2016-09-12T03:14:01.226Z,0
2016-09-12T03:14:26.818Z,0
2016-09-12T03:14:52.403Z,0
2016-09-12T03:15:18.078Z,0
2016-09-12T03:15:43.646Z,0
2016-09-12T03:16:09.369Z,0
2016-09-12T03:16:34.923Z,0
2016-09-12T03:17:00.528Z,0
2016-09-12T03:17:26.142Z,0
2016-09-12T03:17:51.710Z,0
2016-09-12T03:18:17.270Z,0
2016-09-12T03:18:42.846Z,0
2016-09-12T03:19:08.795Z,0
2016-09-12T03:19:34.469Z,0
2016-09-12T03:20:00.246Z,0
2016-09-12T03:20:25.626Z,0
2016-09-12T03:20:51.329Z,0
2016-09-12T03:21:16.924Z,0
2016-09-12T03:21:42.665Z,0
2016-09-12T03:22:08.260Z,0
2016-09-12T03:22:33.864Z,0
2016-09-12T03:22:59.424Z,0
2016-09-12T03:23:25.113Z,0
2016-09-12T03:23:50.690Z,0
2016-09-12T03:24:16.273Z,0
2016-09-12T03:24:41.839Z,0
2016-09-12T03:25:07.613Z,0
2016-09-12T03:25:33.174Z,0
2016-09-12T03:25:58.871Z,0
2016-09-12T03:26:24.552Z,0
2016-09-12T03:26:50.156Z,0
2016-09-12T03:27:15.873Z,0
2016-09-12T03:27:41.519Z,0
2016-09-12T03:28:07.088Z,0
2016-09-12T03:28:32.643Z,0
2016-09-12T03:28:58.252Z,0
2016-09-12T03:29:23.858Z,0
2016-09-12T03:29:49.562Z,0
2016-09-12T03:30:15.193Z,0
2016-09-12T03:30:40.769Z,0
2016-09-12T03:31:06.475Z,0
2016-09-12T03:31:32.131Z,0
2016-09-12T03:31:57.732Z,0
2016-09-12T03:32:23.406Z,0
2016-09-12T03:32:48.959Z,0
2016-09-12T03:33:14.660Z,0
2016-09-12T03:33:40.236Z,0
2016-09-12T03:34:05.852Z,0
2016-09-12T03:34:31.436Z,0
2016-09-12T03:34:57.002Z,0
2016-09-12T03:35:22.992Z,0
2016-09-12T03:35:48.665Z,0
2016-09-12T03:36:14.200Z,0
2016-09-12T03:36:39.776Z,0
2016-09-12T03:37:05.334Z,0
2016-09-12T03:37:31.025Z,0
2016-09-12T03:37:56.611Z,0
2016-09-12T03:38:22.261Z,0
2016-09-12T03:38:47.823Z,0
2016-09-12T03:39:14.425Z,0
2016-09-12T03:39:40.080Z,0
2016-09-12T03:40:05.856Z,0
2016-09-12T03:40:31.435Z,0
2016-09-12T03:40:57.054Z,0
2016-09-12T03:41:22.670Z,0
2016-09-12T03:41:48.274Z,0
2016-09-12T03:42:13.897Z,0
2016-09-12T03:42:39.528Z,0
2016-09-12T03:43:05.092Z,0
2016-09-12T03:43:30.656Z,0
2016-09-12T03:43:56.226Z,0
2016-09-12T03:44:21.894Z,0
2016-09-12T03:44:47.493Z,0
2016-09-12T03:45:13.075Z,0
2016-09-12T03:45:38.687Z,0
2016-09-12T03:46:04.240Z,0
2016-09-12T03:46:30.116Z,0
2016-09-12T03:46:55.751Z,0
2016-09-12T03:47:21.335Z,0
2016-09-12T03:47:46.936Z,0
2016-09-12T03:48:12.551Z,0
2016-09-12T03:48:38.123Z,0
2016-09-12T03:49:03.683Z,0
2016-09-12T03:49:29.250Z,0
2016-09-12T03:49:54.804Z,0
2016-09-12T03:50:20.392Z,0
2016-09-12T03:50:45.986Z,0
2016-09-12T03:51:11.668Z,0
2016-09-12T03:51:37.212Z,0
2016-09-12T03:52:02.886Z,0
2016-09-12T03:52:28.674Z,0
2016-09-12T03:52:54.305Z,0
2016-09-12T03:53:19.877Z,0
2016-09-12T03:53:45.455Z,0
2016-09-12T03:54:11.212Z,0
2016-09-12T03:54:36.834Z,0
2016-09-12T03:55:02.424Z,0
2016-09-12T03:55:28.026Z,0
2016-09-12T03:55:53.643Z,0
2016-09-12T03:56:19.196Z,0
2016-09-12T03:56:44.758Z,0
2016-09-12T03:57:10.351Z,0
2016-09-12T03:57:35.927Z,0
2016-09-12T03:58:01.506Z,0
2016-09-12T03:58:27.039Z,0
2016-09-12T03:58:52.602Z,0
2016-09-12T03:59:18.184Z,0
2016-09-12T03:59:43.756Z,0
2016-09-12T04:00:09.334Z,0
2016-09-12T04:00:34.942Z,0
2016-09-12T04:01:00.555Z,0
2016-09-12T04:01:26.136Z,0
2016-09-12T04:01:51.705Z,0
2016-09-12T04:02:17.267Z,0
2016-09-12T04:02:42.942Z,0
2016-09-12T04:03:08.533Z,0
2016-09-12T04:03:34.128Z,0
2016-09-12T04:03:59.695Z,0
2016-09-12T04:04:25.453Z,0
2016-09-12T04:04:51.009Z,0
2016-09-12T04:05:16.721Z,0
2016-09-12T04:05:42.306Z,0
2016-09-12T04:06:07.870Z,0
2016-09-12T04:06:33.443Z,0
2016-09-12T04:06:59.311Z,0
2016-09-12T04:07:24.963Z,0
2016-09-12T04:07:50.672Z,0
2016-09-12T04:08:16.247Z,0
2016-09-12T04:08:41.799Z,0
2016-09-12T04:09:07.435Z,0
2016-09-12T04:09:32.994Z,0
2016-09-12T04:09:58.574Z,0
2016-09-12T04:10:24.879Z,0
2016-09-12T04:10:50.427Z,0
2016-09-12T04:11:17.578Z,0
2016-09-12T04:11:43.156Z,0
2016-09-12T04:12:08.803Z,0
2016-09-12T04:12:34.542Z,0
2016-09-12T04:13:00.261Z,0
2016-09-12T04:13:25.891Z,0
2016-09-12T04:13:51.622Z,0
2016-09-12T04:14:17.190Z,0
2016-09-12T04:14:42.817Z,0
2016-09-12T04:15:08.437Z,0
2016-09-12T04:15:34.157Z,0
2016-09-12T04:15:59.754Z,0
2016-09-12T04:16:25.481Z,0
2016-09-12T04:16:51.372Z,0
2016-09-12T04:17:17.029Z,0
2016-09-12T04:17:43.089Z,0
2016-09-12T04:18:09.044Z,0
2016-09-12T04:19:33.361Z,0
2016-09-12T04:19:58.970Z,0
2016-09-12T04:20:24.595Z,0
2016-09-12T04:20:50.142Z,0
2016-09-12T04:21:15.710Z,0
2016-09-12T04:21:41.373Z,0
2016-09-12T04:22:07.024Z,0
2016-09-12T04:22:32.676Z,0
2016-09-12T04:22:59.280Z,0
2016-09-12T04:23:24.735Z,0
2016-09-12T04:23:50.392Z,0
2016-09-12T04:24:16.269Z,0
2016-09-12T04:24:41.830Z,0
2016-09-12T04:25:07.658Z,0
2016-09-12T04:25:33.226Z,0
2016-09-12T04:25:58.887Z,0
2016-09-12T04:26:24.519Z,0
2016-09-12T04:26:50.165Z,0
2016-09-12T04:27:15.774Z,0
2016-09-12T04:27:41.344Z,0
2016-09-12T04:28:06.915Z,0
2016-09-12T04:28:32.479Z,0
2016-09-12T04:28:58.154Z,0
2016-09-12T04:29:23.709Z,0
2016-09-12T04:29:49.269Z,0
2016-09-12T04:30:14.823Z,0
2016-09-12T04:30:40.431Z,0
2016-09-12T04:31:05.993Z,0
2016-09-12T04:31:31.592Z,0
2016-09-12T04:31:57.303Z,0
2016-09-12T04:32:22.868Z,0
2016-09-12T04:32:48.422Z,0
2016-09-12T04:33:14.133Z,0
2016-09-12T04:33:39.738Z,0
2016-09-12T04:34:06.286Z,0
2016-09-12T04:34:32.279Z,0
2016-09-12T04:34:57.886Z,0
2016-09-12T04:35:23.688Z,0
2016-09-12T04:35:49.268Z,4
2016-09-12T04:36:14.974Z,4
2016-09-12T04:36:40.634Z,4
2016-09-12T04:37:06.284Z,0
2016-09-12T04:37:31.856Z,0
2016-09-12T04:37:57.638Z,0
2016-09-12T04:38:23.187Z,0
2016-09-12T04:38:48.750Z,0
2016-09-12T04:39:14.328Z,0
2016-09-12T04:39:40.136Z,4
2016-09-12T04:40:05.800Z,4
2016-09-12T04:40:31.415Z,4
2016-09-12T04:40:57.027Z,4
2016-09-12T04:41:22.691Z,0
2016-09-12T04:41:48.254Z,0
2016-09-12T04:42:13.871Z,4
2016-09-12T04:42:39.535Z,4
2016-09-12T04:43:05.119Z,4
2016-09-12T04:43:30.700Z,4
2016-09-12T04:43:56.267Z,4
2016-09-12T04:44:21.825Z,4
2016-09-12T04:44:47.386Z,4
2016-09-12T04:45:13.071Z,4
2016-09-12T04:45:38.747Z,4
2016-09-12T04:46:04.323Z,4
2016-09-12T04:46:29.874Z,4
2016-09-12T04:46:55.533Z,4
2016-09-12T04:47:21.158Z,4
2016-09-12T04:47:46.742Z,8
2016-09-12T04:48:12.306Z,8
2016-09-12T04:48:37.879Z,4
2016-09-12T04:49:03.598Z,4
2016-09-12T04:49:29.241Z,8
2016-09-12T04:49:54.927Z,8
2016-09-12T04:50:20.537Z,8
2016-09-12T04:50:46.129Z,8
2016-09-12T04:51:11.745Z,8
2016-09-12T04:51:37.313Z,8
2016-09-12T04:52:02.964Z,12
2016-09-12T04:52:28.526Z,8
2016-09-12T04:52:54.198Z,8
2016-09-12T04:53:19.797Z,12
2016-09-12T04:53:45.384Z,8
2016-09-12T04:54:11.403Z,12
2016-09-12T04:54:36.972Z,12
2016-09-12T04:55:02.624Z,12
2016-09-12T04:55:28.248Z,12
2016-09-12T04:55:53.786Z,12
2016-09-12T04:56:19.333Z,16
2016-09-12T04:56:44.874Z,12
2016-09-12T04:57:10.533Z,16
2016-09-12T04:57:36.092Z,16
2016-09-12T04:58:01.668Z,16
2016-09-12T04:58:27.217Z,16
2016-09-12T04:58:52.764Z,20
2016-09-12T04:59:18.335Z,16
2016-09-12T04:59:43.911Z,20
2016-09-12T05:00:09.661Z,20
2016-09-12T05:00:35.113Z,20
2016-09-12T05:01:00.765Z,20
2016-09-12T05:01:26.329Z,20
2016-09-12T05:01:51.892Z,20
2016-09-12T05:02:17.500Z,24
2016-09-12T05:02:43.112Z,20
2016-09-12T05:03:08.753Z,24
2016-09-12T05:03:34.287Z,20
2016-09-12T05:03:59.864Z,24
2016-09-12T05:04:25.523Z,24
2016-09-12T05:04:51.166Z,24
2016-09-12T05:05:16.748Z,28
2016-09-12T05:05:42.302Z,28
2016-09-12T05:06:07.944Z,28
2016-09-12T05:06:33.489Z,28
2016-09-12T05:06:59.081Z,28
2016-09-12T05:07:24.888Z,28
2016-09-12T05:07:50.493Z,32
2016-09-12T05:08:16.183Z,28
2016-09-12T05:08:41.790Z,32
2016-09-12T05:09:07.341Z,32
2016-09-12T05:09:32.909Z,32
2016-09-12T05:09:58.500Z,36
2016-09-12T05:10:24.235Z,36
2016-09-12T05:10:49.841Z,36
2016-09-12T05:11:15.428Z,36
2016-09-12T05:11:41.190Z,40
2016-09-12T05:12:06.833Z,36
2016-09-12T05:12:32.415Z,36
2016-09-12T05:12:57.980Z,40
2016-09-12T05:13:23.564Z,40
2016-09-12T05:13:49.169Z,40
2016-09-12T05:14:14.814Z,40
2016-09-12T05:14:40.471Z,40
2016-09-12T05:15:06.080Z,40
2016-09-12T05:15:31.664Z,44
2016-09-12T05:15:57.238Z,44
2016-09-12T05:16:22.802Z,44
2016-09-12T05:16:48.378Z,44
2016-09-12T05:17:14.041Z,48
2016-09-12T05:17:39.711Z,48
2016-09-12T05:18:05.267Z,48
2016-09-12T05:18:31.462Z,48
2016-09-12T05:18:56.997Z,48
2016-09-12T05:19:22.604Z,48
2016-09-12T05:19:48.195Z,52
2016-09-12T05:20:13.750Z,52
2016-09-12T05:20:39.287Z,52
2016-09-12T05:21:04.913Z,56
2016-09-12T05:21:30.735Z,56
2016-09-12T05:21:56.271Z,56
2016-09-12T05:22:21.905Z,56
2016-09-12T05:22:47.460Z,60
2016-09-12T05:23:13.050Z,60
2016-09-12T05:23:38.594Z,60
2016-09-12T05:24:04.161Z,60
2016-09-12T05:24:30.025Z,64
2016-09-12T05:24:55.594Z,64
2016-09-12T05:25:21.122Z,64
2016-09-12T05:25:46.675Z,64
2016-09-12T05:26:12.257Z,68
2016-09-12T05:26:37.942Z,68
2016-09-12T05:27:03.514Z,68
2016-09-12T05:27:29.102Z,68
2016-09-12T05:27:54.690Z,68
2016-09-12T05:28:20.354Z,72
2016-09-12T05:28:46.015Z,72
2016-09-12T05:29:11.797Z,72
2016-09-12T05:29:37.426Z,72
2016-09-12T05:30:03.122Z,76
2016-09-12T05:30:28.693Z,76
2016-09-12T05:30:54.290Z,72
2016-09-12T05:31:19.935Z,76
2016-09-12T05:31:45.573Z,76
2016-09-12T05:32:11.219Z,80
2016-09-12T05:32:36.943Z,76
2016-09-12T05:33:02.561Z,80
2016-09-12T05:33:28.089Z,80
2016-09-12T05:33:53.656Z,80
2016-09-12T05:34:19.285Z,80
2016-09-12T05:34:44.832Z,80
2016-09-12T05:35:36.844Z,84
2016-09-12T05:36:02.317Z,88
2016-09-12T05:36:28.175Z,84
2016-09-12T05:36:53.733Z,84
2016-09-12T05:37:19.498Z,88
2016-09-12T05:37:45.128Z,84
2016-09-12T05:38:10.829Z,88
2016-09-12T05:38:36.563Z,92
2016-09-12T05:39:02.269Z,88
2016-09-12T05:39:27.948Z,92
2016-09-12T05:39:53.525Z,88
2016-09-12T05:40:19.161Z,92
2016-09-12T05:40:44.768Z,92
2016-09-12T05:41:10.352Z,96
2016-09-12T05:41:35.924Z,92
2016-09-12T05:42:01.485Z,96
2016-09-12T05:42:27.051Z,96
2016-09-12T05:42:52.733Z,96
2016-09-12T05:43:18.314Z,96
2016-09-12T05:43:43.994Z,96
2016-09-12T05:44:10.385Z,96
2016-09-12T05:44:36.930Z,100
2016-09-12T05:45:02.839Z,100
2016-09-12T05:45:28.761Z,100
2016-09-12T05:45:54.385Z,100
2016-09-12T05:46:21.591Z,104
2016-09-12T05:46:47.119Z,100
2016-09-12T05:47:12.740Z,104
2016-09-12T05:47:38.296Z,104
2016-09-12T05:48:04.188Z,104
2016-09-12T05:48:29.709Z,104
2016-09-12T05:48:55.325Z,104
2016-09-12T05:49:21.200Z,104
2016-09-12T05:49:46.944Z,108
2016-09-12T05:50:13.067Z,108
2016-09-12T05:50:38.666Z,108
2016-09-12T05:51:04.569Z,108
2016-09-12T05:51:30.157Z,108
2016-09-12T05:51:55.726Z,108
2016-09-12T05:52:21.440Z,108
2016-09-12T05:52:46.982Z,108
2016-09-12T05:53:12.566Z,112
2016-09-12T05:53:38.373Z,108
2016-09-12T05:54:03.936Z,112
2016-09-12T05:54:29.509Z,116
2016-09-12T05:54:55.127Z,112
2016-09-12T05:55:20.846Z,112
2016-09-12T05:55:46.410Z,116
2016-09-12T05:56:12.075Z,112
2016-09-12T05:56:37.645Z,116
2016-09-12T05:57:03.227Z,116
2016-09-12T05:57:28.896Z,116
2016-09-12T05:57:54.555Z,116
2016-09-12T05:58:20.089Z,120
2016-09-12T05:58:45.801Z,116
2016-09-12T05:59:11.566Z,120
2016-09-12T06:00:15.138Z,120
2016-09-12T06:00:40.742Z,120
2016-09-12T06:01:49.114Z,120
2016-09-12T06:02:14.694Z,120
2016-09-12T06:02:40.248Z,120
2016-09-12T06:03:06.029Z,124
2016-09-12T06:03:31.686Z,120
2016-09-12T06:03:57.261Z,124
2016-09-12T06:04:22.836Z,124
2016-09-12T06:04:48.412Z,124
2016-09-12T06:05:15.160Z,124
2016-09-12T06:05:41.053Z,124
2016-09-12T06:06:06.813Z,124
2016-09-12T06:06:32.389Z,124
2016-09-12T06:06:57.980Z,128
2016-09-12T06:07:23.900Z,124
2016-09-12T06:07:49.229Z,128
2016-09-12T06:08:14.775Z,128
2016-09-12T06:08:40.318Z,128
2016-09-12T06:09:06.100Z,128
2016-09-12T06:09:34.668Z,128
2016-09-12T06:10:06.200Z,128
2016-09-12T06:10:32.000Z,128
2016-09-12T06:10:57.522Z,132
2016-09-12T06:11:23.106Z,132
2016-09-12T06:11:48.719Z,128
2016-09-12T06:12:14.582Z,128
2016-09-12T06:12:41.445Z,132
2016-09-12T06:13:07.476Z,132
2016-09-12T06:13:33.407Z,132
2016-09-12T06:13:59.062Z,128
2016-09-12T06:14:24.885Z,132
2016-09-12T06:14:50.487Z,132
2016-09-12T06:15:16.566Z,136
2016-09-12T06:15:42.283Z,132
2016-09-12T06:16:07.807Z,132
2016-09-12T06:16:33.386Z,136
2016-09-12T06:16:58.979Z,136
2016-09-12T06:17:24.672Z,132
2016-09-12T06:17:50.417Z,136
2016-09-12T06:18:16.099Z,136
2016-09-12T06:18:41.750Z,136
2016-09-12T06:19:08.085Z,136
2016-09-12T06:19:33.796Z,136
2016-09-12T06:20:05.606Z,136
2016-09-12T06:20:40.095Z,136
2016-09-12T06:21:08.787Z,136
2016-09-12T06:21:35.761Z,136
2016-09-12T06:23:15.778Z,140
2016-09-12T06:25:00.995Z,140
2016-09-12T06:25:26.569Z,140
2016-09-12T06:26:17.700Z,140
2016-09-12T06:26:43.401Z,140
2016-09-12T06:27:09.111Z,140
2016-09-12T06:27:34.741Z,140
2016-09-12T06:28:00.348Z,140
2016-09-12T06:28:25.977Z,140
2016-09-12T06:28:51.574Z,140
2016-09-12T06:29:17.124Z,144
2016-09-12T06:29:42.666Z,140
2016-09-12T06:30:08.221Z,140
2016-09-12T06:30:33.789Z,140
2016-09-12T06:30:59.387Z,144
2016-09-12T06:31:24.966Z,144
2016-09-12T06:31:50.506Z,140
2016-09-12T06:32:16.062Z,144
2016-09-12T06:32:41.627Z,144
2016-09-12T06:33:07.251Z,144
2016-09-12T06:33:32.782Z,144
2016-09-12T06:34:51.319Z,144
2016-09-12T06:35:16.885Z,144
2016-09-12T06:35:42.432Z,148
2016-09-12T06:36:08.008Z,144
2016-09-12T06:36:33.556Z,144
2016-09-12T06:36:59.168Z,144
2016-09-12T06:37:24.797Z,148
2016-09-12T06:37:50.326Z,144
2016-09-12T06:38:15.940Z,144
2016-09-12T06:38:41.529Z,148
2016-09-12T06:39:07.081Z,148
2016-09-12T06:39:32.650Z,144
2016-09-12T06:39:58.217Z,148
2016-09-12T06:40:23.881Z,148
2016-09-12T06:40:57.299Z,148
2016-09-12T13:03:52.633Z,3268
2016-09-12T13:04:18.205Z,3272
2016-09-12T13:04:43.780Z,3276
2016-09-12T13:05:09.333Z,3276
2016-09-12T13:05:34.915Z,3260
2016-09-12T13:06:00.460Z,3276
2016-09-12T13:06:26.017Z,3292
2016-09-12T13:06:51.593Z,3304
2016-09-12T13:07:17.178Z,3312
2016-09-12T13:07:42.728Z,3308
2016-09-12T13:08:08.305Z,3320
2016-09-12T13:08:33.852Z,3332
2016-09-12T13:08:59.437Z,3332
2016-09-12T13:09:24.991Z,3340
2016-09-12T13:09:50.554Z,3340
2016-09-12T13:10:16.192Z,3344
2016-09-12T13:10:41.754Z,3356
2016-09-12T13:11:07.309Z,3360
2016-09-12T13:11:32.891Z,3392
2016-09-12T13:11:58.463Z,3400
2016-09-12T13:12:24.037Z,3400
2016-09-12T13:12:49.634Z,3416
2016-09-12T13:13:15.225Z,3404
2016-09-12T13:13:40.791Z,3408
2016-09-12T13:14:06.362Z,3416
2016-09-12T13:14:31.955Z,3424
2016-09-12T13:14:57.592Z,3428
2016-09-12T13:15:23.170Z,3436
2016-09-12T13:15:48.746Z,3448
2016-09-12T13:16:14.296Z,3468
2016-09-12T13:16:39.851Z,3460
2016-09-12T13:17:05.402Z,3480
2016-09-12T13:17:30.980Z,3464
2016-09-12T13:17:56.580Z,3456
2016-09-12T13:18:22.189Z,3468
2016-09-12T13:18:47.756Z,3484
2016-09-12T13:19:13.303Z,3488
2016-09-12T13:19:38.857Z,3504
2016-09-12T13:20:04.431Z,3496
2016-09-12T13:20:30.002Z,3492
2016-09-12T13:20:55.551Z,3488
2016-09-12T13:21:21.134Z,3476
2016-09-12T13:21:46.691Z,3500
2016-09-12T13:22:12.356Z,3500
2016-09-12T13:22:37.973Z,3496
2016-09-12T13:23:03.647Z,3488
2016-09-12T13:23:29.201Z,3472
2016-09-12T13:23:54.796Z,3468
2016-09-12T13:24:20.412Z,3464
2016-09-12T13:24:46.016Z,3456
2016-09-12T13:25:11.576Z,3460
2016-09-12T13:25:37.156Z,3444
2016-09-12T13:26:02.869Z,3460
2016-09-12T13:26:28.419Z,3464
2016-09-12T13:26:53.983Z,3460
2016-09-12T13:27:19.534Z,3468
2016-09-12T13:27:45.089Z,3468
2016-09-12T13:28:10.644Z,3472
2016-09-12T13:28:36.629Z,3472
2016-09-12T13:29:02.176Z,3480
2016-09-12T13:29:27.758Z,3476
2016-09-12T13:29:53.363Z,3484
2016-09-12T13:30:18.904Z,3496
2016-09-12T13:30:44.489Z,3484
2016-09-12T13:31:10.052Z,3480
2016-09-12T13:31:35.694Z,3480
2016-09-12T13:32:01.246Z,3496
2016-09-12T13:32:26.782Z,3484
2016-09-12T13:32:52.334Z,3484
2016-09-12T13:33:17.864Z,3480
2016-09-12T13:33:43.445Z,3496
2016-09-12T13:34:09.060Z,3516
2016-09-12T13:34:34.619Z,3508
2016-09-12T13:35:00.146Z,3516
2016-09-12T13:35:25.694Z,3524
2016-09-12T13:35:51.246Z,3512
2016-09-12T13:36:16.812Z,3532
2016-09-12T13:36:42.365Z,3520
2016-09-12T13:37:07.916Z,3528
2016-09-12T13:37:33.452Z,3516
2016-09-12T13:37:59.053Z,3520
2016-09-12T13:38:24.617Z,3536
2016-09-12T13:38:50.158Z,3556
2016-09-12T13:39:15.721Z,3528
2016-09-12T13:39:41.273Z,3544
2016-09-12T13:40:07.018Z,3540
2016-09-12T13:40:32.568Z,3544
2016-09-12T13:40:58.137Z,3564
2016-09-12T13:41:23.721Z,3564
2016-09-12T13:41:49.241Z,3568
2016-09-12T13:42:14.804Z,3572
2016-09-12T13:42:40.371Z,3580
2016-09-12T13:43:06.016Z,3600
2016-09-12T13:43:31.576Z,3600
2016-09-12T13:43:57.123Z,3612
2016-09-12T13:44:22.668Z,3608
2016-09-12T13:44:48.225Z,3616
2016-09-12T13:45:13.789Z,3612
2016-09-12T13:45:39.337Z,3604
2016-09-12T13:46:04.898Z,3600
2016-09-12T13:46:30.479Z,3608
2016-09-12T13:46:56.059Z,3616
2016-09-12T13:47:21.711Z,3620
2016-09-12T13:47:47.254Z,3600
2016-09-12T13:48:12.788Z,3600
2016-09-12T13:48:38.354Z,3612
2016-09-12T13:49:03.925Z,3600
2016-09-12T13:49:29.469Z,3588
2016-09-12T13:49:55.033Z,3592
2016-09-12T13:50:20.590Z,3592
2016-09-12T13:50:46.136Z,3592
2016-09-12T13:51:11.701Z,3588
2016-09-12T13:51:37.294Z,3568
2016-09-12T13:52:02.861Z,3600
2016-09-12T13:52:28.429Z,3588
2016-09-12T13:52:54.002Z,3576
2016-09-12T13:53:19.573Z,3592
2016-09-12T13:53:45.134Z,3580
2016-09-12T13:54:10.679Z,3588
2016-09-12T13:54:36.234Z,3568
2016-09-12T13:55:01.816Z,3572
2016-09-12T13:55:27.393Z,3576
2016-09-12T13:55:52.980Z,3576
2016-09-12T13:56:18.552Z,3568
2016-09-12T13:56:44.164Z,3572
2016-09-12T13:57:09.759Z,3568
2016-09-12T13:57:35.342Z,3556
2016-09-12T13:58:00.907Z,3552
2016-09-12T13:58:26.480Z,3544
2016-09-12T13:58:52.035Z,3556
2016-09-12T13:59:17.596Z,3556
2016-09-12T13:59:43.179Z,3544
2016-09-12T14:00:08.749Z,3556
2016-09-12T14:00:34.355Z,3540
2016-09-12T14:00:59.977Z,3528
2016-09-12T14:01:25.514Z,3520
2016-09-12T14:01:51.094Z,3532
2016-09-12T14:02:16.675Z,3532
2016-09-12T14:02:42.258Z,3536
2016-09-12T14:03:07.840Z,3512
2016-09-12T14:03:33.368Z,3528
2016-09-12T14:03:59.036Z,3520
2016-09-12T14:04:24.606Z,3528
2016-09-12T14:04:50.180Z,3536
2016-09-12T14:05:15.753Z,3528
2016-09-12T14:05:41.302Z,3520
2016-09-12T14:06:07.032Z,3512
2016-09-12T14:06:32.599Z,3516
2016-09-12T14:06:58.154Z,3508
2016-09-12T14:07:23.807Z,3508
2016-09-12T14:07:49.359Z,3496
2016-09-12T14:08:14.977Z,3512
2016-09-12T14:08:40.504Z,3508
2016-09-12T14:09:06.081Z,3504
2016-09-12T14:09:31.678Z,3504
2016-09-12T14:09:57.241Z,3536
2016-09-12T14:10:22.803Z,3536
2016-09-12T14:10:48.430Z,3552
2016-09-12T14:11:13.974Z,3548
2016-09-12T14:11:39.568Z,3548
2016-09-12T14:12:05.202Z,3552
2016-09-12T14:12:30.816Z,3536
2016-09-12T14:12:56.370Z,3556
2016-09-12T14:13:21.934Z,3548
2016-09-12T14:13:47.494Z,3540
2016-09-12T14:14:13.120Z,3544
2016-09-12T14:14:38.737Z,3544
2016-09-12T14:15:04.351Z,3544
2016-09-12T14:15:29.950Z,3528
2016-09-12T14:15:55.497Z,3532
2016-09-12T14:16:21.087Z,3540
2016-09-12T14:16:46.646Z,3536
2016-09-12T14:17:12.222Z,3520
2016-09-12T14:17:37.828Z,3524
2016-09-12T14:18:03.403Z,3520
2016-09-12T14:19:27.114Z,3508
2016-09-12T14:19:52.704Z,3512
2016-09-12T14:21:59.892Z,3496
2016-09-12T14:22:25.436Z,3492
2016-09-12T14:22:51.097Z,3480
2016-09-12T14:23:16.671Z,3480
2016-09-12T14:23:42.253Z,3476
2016-09-12T14:24:07.887Z,3476
2016-09-12T14:24:33.429Z,3480
2016-09-12T14:24:58.986Z,3472
2016-09-12T14:25:24.528Z,3464
2016-09-12T14:25:50.082Z,3456
2016-09-12T14:26:15.624Z,3460
2016-09-12T14:26:41.184Z,3464
2016-09-12T14:27:06.724Z,3452
2016-09-12T14:27:32.293Z,3452
2016-09-12T14:27:57.877Z,3464
2016-09-12T14:28:23.414Z,3452
2016-09-12T14:28:49.021Z,3460
2016-09-12T14:29:14.613Z,3468
2016-09-12T14:29:40.182Z,3436
2016-09-12T14:30:05.742Z,3444
2016-09-12T14:30:31.309Z,3420
2016-09-12T14:30:56.956Z,3420
2016-09-12T14:31:22.633Z,3420
2016-09-12T14:31:48.218Z,3408
2016-09-12T14:32:13.797Z,3388
2016-09-12T14:32:39.360Z,3384
2016-09-12T14:33:04.935Z,3396
2016-09-12T14:33:30.588Z,3384
2016-09-12T14:33:56.156Z,3368
2016-09-12T14:34:21.720Z,3360
2016-09-12T14:34:47.316Z,3376
2016-09-12T14:35:12.905Z,3368
2016-09-12T14:35:38.449Z,3352
2016-09-12T14:36:04.003Z,3332
2016-09-12T14:36:29.578Z,3352
2016-09-12T14:36:55.115Z,3356
2016-09-12T14:37:20.665Z,3336
2016-09-12T14:37:46.206Z,3340
2016-09-12T14:38:11.766Z,3332
2016-09-12T14:38:37.334Z,3336
2016-09-12T14:39:02.892Z,3328
2016-09-12T14:39:28.469Z,3320
2016-09-12T14:39:54.048Z,3300
2016-09-12T14:40:19.629Z,3304
2016-09-12T14:40:45.168Z,3308
2016-09-12T14:41:10.707Z,3296
2016-09-12T14:41:36.249Z,3292
2016-09-12T14:42:01.886Z,3284
2016-09-12T14:42:27.441Z,3300
2016-09-12T14:42:53.015Z,3292
2016-09-12T14:43:18.597Z,3292
2016-09-12T14:43:44.118Z,3300
2016-09-12T14:44:09.669Z,3296
2016-09-12T14:44:35.204Z,3280
2016-09-12T14:45:00.779Z,3276
2016-09-12T14:45:26.321Z,3280
2016-09-12T14:45:51.903Z,3272
2016-09-12T14:46:17.471Z,3268
2016-09-12T14:49:18.133Z,3272
2016-09-12T14:49:43.713Z,3252
2016-09-12T14:50:09.271Z,3252
2016-09-12T14:50:34.898Z,3244
2016-09-12T14:51:00.450Z,3244
2016-09-12T14:51:26.003Z,3236
2016-09-12T14:51:51.588Z,3224
2016-09-12T14:52:17.169Z,3196
2016-09-12T14:52:42.739Z,3200
2016-09-12T14:53:08.321Z,3164
2016-09-12T14:53:33.913Z,3156
2016-09-12T14:53:59.457Z,3148
2016-09-12T14:54:25.129Z,3136
2016-09-12T14:54:50.700Z,3128
2016-09-12T14:55:16.337Z,3100
2016-09-12T14:55:41.939Z,3084
2016-09-12T14:56:07.503Z,3080
2016-09-12T14:56:33.065Z,3068
2016-09-12T14:56:58.623Z,3056
2016-09-12T14:57:24.240Z,3036
2016-09-12T14:57:49.852Z,3028
2016-09-12T14:58:15.424Z,3000
2016-09-12T14:58:41.120Z,3004
2016-09-12T14:59:06.684Z,2988
2016-09-12T14:59:32.267Z,2984
2016-09-12T14:59:57.845Z,2972
2016-09-12T15:00:23.440Z,2964
2016-09-12T15:00:49.018Z,2968
2016-09-12T15:01:14.587Z,2940
2016-09-12T15:01:40.141Z,2940
2016-09-12T15:02:05.714Z,2944
2016-09-12T15:02:31.287Z,2916
2016-09-12T15:02:56.883Z,2908
2016-09-12T15:03:22.441Z,2892
2016-09-12T15:03:48.021Z,2864
2016-09-12T15:04:13.589Z,2880
2016-09-12T15:04:39.331Z,2860
2016-09-12T15:05:04.989Z,2844
2016-09-12T15:05:30.581Z,2844
2016-09-12T15:05:56.247Z,2848
2016-09-12T15:06:21.846Z,2848
2016-09-12T15:06:47.457Z,2840
2016-09-12T15:07:13.163Z,2828
2016-09-12T15:07:38.752Z,2800
2016-09-12T15:08:04.390Z,2820
2016-09-12T15:08:30.046Z,2820
2016-09-12T15:08:55.604Z,2816
2016-09-12T15:09:21.180Z,2804
2016-09-12T15:09:46.740Z,2796
2016-09-12T15:10:12.334Z,2796
2016-09-12T15:10:37.934Z,2772
2016-09-12T15:11:03.489Z,2772
2016-09-12T15:11:29.064Z,2756
2016-09-12T15:11:54.618Z,2752
2016-09-12T15:12:20.218Z,2756
2016-09-12T15:12:45.816Z,2732
2016-09-12T15:13:11.411Z,2708
2016-09-12T15:13:36.963Z,2700
2016-09-12T15:14:02.646Z,2692
2016-09-12T15:15:21.485Z,2652
2016-09-12T15:15:47.047Z,2632
2016-09-12T15:17:54.232Z,2596
2016-09-12T15:18:19.788Z,2600
2016-09-12T15:18:45.376Z,2604
2016-09-12T15:19:10.942Z,2592
2016-09-12T15:20:29.579Z,2560
2016-09-12T15:20:55.167Z,2548
2016-09-12T15:21:20.720Z,2540
2016-09-12T15:21:46.309Z,2532
2016-09-12T15:22:11.885Z,2520
2016-09-12T15:22:37.506Z,2492
2016-09-12T15:23:03.080Z,2484
2016-09-12T15:23:28.628Z,2468
2016-09-12T15:23:54.179Z,2464
2016-09-12T15:24:19.728Z,2464
2016-09-12T15:24:45.285Z,2444
2016-09-12T15:25:10.849Z,2432
2016-09-12T15:25:36.428Z,2432
2016-09-12T15:26:01.990Z,2432
2016-09-12T15:26:27.621Z,2420
2016-09-12T15:26:53.216Z,2400
2016-09-12T15:27:18.762Z,2404
2016-09-12T15:27:44.321Z,2404
2016-09-12T15:28:09.892Z,2392
2016-09-12T15:28:35.466Z,2368
2016-09-12T15:29:01.011Z,2376
2016-09-12T15:29:26.590Z,2388
2016-09-12T15:29:52.143Z,2368
2016-09-12T15:30:17.713Z,2356
2016-09-12T15:30:43.275Z,2340
2016-09-12T15:31:08.844Z,2336
2016-09-12T15:31:34.423Z,2340
2016-09-12T15:31:59.976Z,2332
2016-09-12T15:32:25.600Z,2328
2016-09-12T15:32:51.153Z,2328
2016-09-12T15:33:16.709Z,2340
2016-09-12T15:33:42.322Z,2336
2016-09-12T15:34:07.985Z,2328
2016-09-12T15:34:33.587Z,2332
2016-09-12T15:34:59.131Z,2332
2016-09-12T15:35:24.831Z,2320
2016-09-12T15:35:50.382Z,2324
2016-09-12T15:36:15.928Z,2324
2016-09-12T15:36:41.519Z,2316